sensor_id;sensor_type;location;lat;lon;timestamp;P1;durP1;ratioP1;P2;durP2;ratioP2
13741;SDS011;8461;52.356;10.704;2022-12-07T00:01:31;34.73;;;18.40;;
13741;SDS011;8461;52.356;10.704;2022-12-07T00:03:58;31.83;;;18.17;;
13741;SDS011;8461;52.356;10.704;2022-12-07T00:06:32;37.27;;;18.13;;
13741;SDS011;8461;52.356;10.704;2022-12-07T00:08:58;33.07;;;19.23;;
13741;SDS011;8461;52.356;10.704;2022-12-07T00:11:24;33.43;;;19.43;;
13741;SDS011;8461;52.356;10.704;2022-12-07T00:13:54;37.57;;;21.00;;
13741;SDS011;8461;52.356;10.704;2022-12-07T00:16:23;34.73;;;18.63;;
13741;SDS011;8461;52.356;10.704;2022-12-07T00:18:50;30.50;;;18.37;;
13741;SDS011;8461;52.356;10.704;2022-12-07T00:21:19;31.73;;;18.37;;
13741;SDS011;8461;52.356;10.704;2022-12-07T00:23:50;34.80;;;19.63;;
13741;SDS011;8461;52.356;10.704;2022-12-07T00:26:26;35.83;;;20.23;;
13741;SDS011;8461;52.356;10.704;2022-12-07T00:28:54;33.53;;;18.47;;
13741;SDS011;8461;52.356;10.704;2022-12-07T00:31:23;33.77;;;18.60;;
13741;SDS011;8461;52.356;10.704;2022-12-07T00:33:50;34.20;;;19.27;;
13741;SDS011;8461;52.356;10.704;2022-12-07T00:36:18;39.67;;;18.97;;
13741;SDS011;8461;52.356;10.704;2022-12-07T00:38:45;34.17;;;18.60;;
13741;SDS011;8461;52.356;10.704;2022-12-07T00:41:11;38.00;;;20.00;;
13741;SDS011;8461;52.356;10.704;2022-12-07T00:43:39;32.97;;;19.33;;
13741;SDS011;8461;52.356;10.704;2022-12-07T00:46:05;39.27;;;21.47;;
13741;SDS011;8461;52.356;10.704;2022-12-07T00:48:31;36.63;;;19.80;;
13741;SDS011;8461;52.356;10.704;2022-12-07T00:50:57;37.60;;;21.13;;
13741;SDS011;8461;52.356;10.704;2022-12-07T00:53:23;39.27;;;19.30;;
13741;SDS011;8461;52.356;10.704;2022-12-07T00:55:49;33.33;;;18.97;;
13741;SDS011;8461;52.356;10.704;2022-12-07T00:58:14;39.20;;;21.43;;
13741;SDS011;8461;52.356;10.704;2022-12-07T01:00:41;35.57;;;20.37;;
13741;SDS011;8461;52.356;10.704;2022-12-07T01:03:08;37.77;;;19.97;;
13741;SDS011;8461;52.356;10.704;2022-12-07T01:05:35;38.53;;;20.77;;
13741;SDS011;8461;52.356;10.704;2022-12-07T01:08:01;42.10;;;20.27;;
13741;SDS011;8461;52.356;10.704;2022-12-07T01:10:26;38.53;;;20.37;;
13741;SDS011;8461;52.356;10.704;2022-12-07T01:12:53;37.97;;;20.53;;
13741;SDS011;8461;52.356;10.704;2022-12-07T01:15:18;42.87;;;21.67;;
13741;SDS011;8461;52.356;10.704;2022-12-07T01:17:44;38.50;;;20.13;;
13741;SDS011;8461;52.356;10.704;2022-12-07T01:20:10;34.30;;;20.03;;
13741;SDS011;8461;52.356;10.704;2022-12-07T01:22:37;39.93;;;20.83;;
13741;SDS011;8461;52.356;10.704;2022-12-07T01:25:03;40.90;;;21.47;;
13741;SDS011;8461;52.356;10.704;2022-12-07T01:27:30;40.60;;;21.87;;
13741;SDS011;8461;52.356;10.704;2022-12-07T01:29:56;39.30;;;22.13;;
13741;SDS011;8461;52.356;10.704;2022-12-07T01:32:21;39.37;;;22.13;;
13741;SDS011;8461;52.356;10.704;2022-12-07T01:34:49;44.17;;;22.23;;
13741;SDS011;8461;52.356;10.704;2022-12-07T01:37:15;44.57;;;22.57;;
13741;SDS011;8461;52.356;10.704;2022-12-07T01:39:40;43.47;;;22.60;;
13741;SDS011;8461;52.356;10.704;2022-12-07T01:42:10;48.47;;;22.80;;
13741;SDS011;8461;52.356;10.704;2022-12-07T01:47:56;43.27;;;22.73;;
13741;SDS011;8461;52.356;10.704;2022-12-07T01:50:24;49.77;;;25.37;;
13741;SDS011;8461;52.356;10.704;2022-12-07T01:52:52;48.03;;;24.63;;
13741;SDS011;8461;52.356;10.704;2022-12-07T01:55:20;47.57;;;21.93;;
13741;SDS011;8461;52.356;10.704;2022-12-07T01:57:48;51.43;;;25.53;;
13741;SDS011;8461;52.356;10.704;2022-12-07T02:00:16;55.63;;;23.33;;
13741;SDS011;8461;52.356;10.704;2022-12-07T02:02:53;44.70;;;23.80;;
13741;SDS011;8461;52.356;10.704;2022-12-07T02:05:25;49.43;;;25.17;;
13741;SDS011;8461;52.356;10.704;2022-12-07T02:07:51;50.67;;;25.63;;
13741;SDS011;8461;52.356;10.704;2022-12-07T02:10:20;48.50;;;23.93;;
13741;SDS011;8461;52.356;10.704;2022-12-07T02:12:49;48.20;;;24.63;;
13741;SDS011;8461;52.356;10.704;2022-12-07T02:15:28;44.33;;;23.27;;
13741;SDS011;8461;52.356;10.704;2022-12-07T02:18:12;52.17;;;25.80;;
13741;SDS011;8461;52.356;10.704;2022-12-07T02:20:54;44.57;;;22.80;;
13741;SDS011;8461;52.356;10.704;2022-12-07T02:23:36;50.43;;;25.57;;
13741;SDS011;8461;52.356;10.704;2022-12-07T02:28:49;48.33;;;24.60;;
13741;SDS011;8461;52.356;10.704;2022-12-07T02:31:34;52.97;;;24.77;;
13741;SDS011;8461;52.356;10.704;2022-12-07T02:34:07;46.83;;;24.60;;
13741;SDS011;8461;52.356;10.704;2022-12-07T02:36:39;53.53;;;26.80;;
13741;SDS011;8461;52.356;10.704;2022-12-07T02:39:11;53.73;;;25.77;;
13741;SDS011;8461;52.356;10.704;2022-12-07T02:41:44;49.33;;;25.60;;
13741;SDS011;8461;52.356;10.704;2022-12-07T02:44:13;52.27;;;26.00;;
13741;SDS011;8461;52.356;10.704;2022-12-07T02:46:46;53.23;;;26.73;;
13741;SDS011;8461;52.356;10.704;2022-12-07T02:49:26;55.13;;;25.20;;
13741;SDS011;8461;52.356;10.704;2022-12-07T02:51:53;54.23;;;27.83;;
13741;SDS011;8461;52.356;10.704;2022-12-07T02:54:19;53.07;;;27.37;;
13741;SDS011;8461;52.356;10.704;2022-12-07T02:56:48;56.27;;;26.93;;
13741;SDS011;8461;52.356;10.704;2022-12-07T03:02:27;49.83;;;25.80;;
13741;SDS011;8461;52.356;10.704;2022-12-07T03:05:12;48.40;;;25.13;;
13741;SDS011;8461;52.356;10.704;2022-12-07T03:08:12;51.30;;;26.43;;
13741;SDS011;8461;52.356;10.704;2022-12-07T03:11:22;47.60;;;26.23;;
13741;SDS011;8461;52.356;10.704;2022-12-07T03:13:54;48.63;;;25.37;;
13741;SDS011;8461;52.356;10.704;2022-12-07T03:16:43;48.77;;;23.87;;
13741;SDS011;8461;52.356;10.704;2022-12-07T03:19:17;49.40;;;27.03;;
13741;SDS011;8461;52.356;10.704;2022-12-07T03:21:52;47.07;;;25.40;;
13741;SDS011;8461;52.356;10.704;2022-12-07T03:24:22;47.93;;;25.43;;
13741;SDS011;8461;52.356;10.704;2022-12-07T03:26:52;46.93;;;26.13;;
13741;SDS011;8461;52.356;10.704;2022-12-07T03:29:30;49.97;;;25.23;;
13741;SDS011;8461;52.356;10.704;2022-12-07T03:32:05;45.77;;;25.77;;
13741;SDS011;8461;52.356;10.704;2022-12-07T03:34:46;49.10;;;26.00;;
13741;SDS011;8461;52.356;10.704;2022-12-07T03:37:37;55.87;;;27.47;;
13741;SDS011;8461;52.356;10.704;2022-12-07T03:40:16;49.90;;;25.70;;
13741;SDS011;8461;52.356;10.704;2022-12-07T03:42:48;51.23;;;26.53;;
13741;SDS011;8461;52.356;10.704;2022-12-07T03:45:16;58.03;;;28.63;;
13741;SDS011;8461;52.356;10.704;2022-12-07T03:47:47;51.50;;;26.33;;
13741;SDS011;8461;52.356;10.704;2022-12-07T03:50:25;43.23;;;24.40;;
13741;SDS011;8461;52.356;10.704;2022-12-07T03:52:58;45.00;;;25.40;;
13741;SDS011;8461;52.356;10.704;2022-12-07T03:55:30;43.57;;;22.63;;
13741;SDS011;8461;52.356;10.704;2022-12-07T03:58:00;43.83;;;24.27;;
13741;SDS011;8461;52.356;10.704;2022-12-07T04:00:30;38.27;;;22.30;;
13741;SDS011;8461;52.356;10.704;2022-12-07T04:02:56;38.00;;;20.00;;
13741;SDS011;8461;52.356;10.704;2022-12-07T04:05:21;38.43;;;20.80;;
13741;SDS011;8461;52.356;10.704;2022-12-07T04:07:47;36.40;;;19.30;;
13741;SDS011;8461;52.356;10.704;2022-12-07T04:10:13;34.20;;;19.37;;
13741;SDS011;8461;52.356;10.704;2022-12-07T04:12:39;34.57;;;19.13;;
13741;SDS011;8461;52.356;10.704;2022-12-07T04:15:04;30.03;;;17.90;;
13741;SDS011;8461;52.356;10.704;2022-12-07T04:17:30;28.67;;;17.47;;
13741;SDS011;8461;52.356;10.704;2022-12-07T04:19:56;31.57;;;16.93;;
13741;SDS011;8461;52.356;10.704;2022-12-07T04:22:21;29.77;;;16.27;;
13741;SDS011;8461;52.356;10.704;2022-12-07T04:24:47;30.77;;;16.53;;
13741;SDS011;8461;52.356;10.704;2022-12-07T04:27:13;24.20;;;14.33;;
13741;SDS011;8461;52.356;10.704;2022-12-07T04:29:38;32.77;;;15.83;;
13741;SDS011;8461;52.356;10.704;2022-12-07T04:32:04;28.57;;;15.93;;
13741;SDS011;8461;52.356;10.704;2022-12-07T04:34:30;27.00;;;15.27;;
13741;SDS011;8461;52.356;10.704;2022-12-07T04:36:55;25.53;;;15.50;;
13741;SDS011;8461;52.356;10.704;2022-12-07T04:39:22;31.57;;;17.43;;
13741;SDS011;8461;52.356;10.704;2022-12-07T04:41:52;27.00;;;16.03;;
13741;SDS011;8461;52.356;10.704;2022-12-07T04:44:18;31.97;;;17.43;;
13741;SDS011;8461;52.356;10.704;2022-12-07T04:46:45;27.27;;;15.20;;
13741;SDS011;8461;52.356;10.704;2022-12-07T04:49:11;26.43;;;14.33;;
13741;SDS011;8461;52.356;10.704;2022-12-07T04:51:37;28.30;;;15.90;;
13741;SDS011;8461;52.356;10.704;2022-12-07T04:54:03;22.63;;;14.13;;
13741;SDS011;8461;52.356;10.704;2022-12-07T04:56:29;28.67;;;15.03;;
13741;SDS011;8461;52.356;10.704;2022-12-07T04:58:55;27.53;;;15.73;;
13741;SDS011;8461;52.356;10.704;2022-12-07T05:01:21;22.53;;;14.50;;
13741;SDS011;8461;52.356;10.704;2022-12-07T05:03:47;20.60;;;11.07;;
13741;SDS011;8461;52.356;10.704;2022-12-07T05:06:13;23.77;;;13.47;;
13741;SDS011;8461;52.356;10.704;2022-12-07T05:08:38;18.87;;;12.47;;
13741;SDS011;8461;52.356;10.704;2022-12-07T05:11:05;24.47;;;14.23;;
13741;SDS011;8461;52.356;10.704;2022-12-07T05:13:32;23.97;;;13.73;;
13741;SDS011;8461;52.356;10.704;2022-12-07T05:15:58;18.17;;;10.87;;
13741;SDS011;8461;52.356;10.704;2022-12-07T05:18:24;21.60;;;12.67;;
13741;SDS011;8461;52.356;10.704;2022-12-07T05:20:49;19.17;;;10.77;;
13741;SDS011;8461;52.356;10.704;2022-12-07T05:23:16;19.07;;;11.90;;
13741;SDS011;8461;52.356;10.704;2022-12-07T05:25:41;21.87;;;10.97;;
13741;SDS011;8461;52.356;10.704;2022-12-07T05:28:07;18.17;;;11.27;;
13741;SDS011;8461;52.356;10.704;2022-12-07T05:30:33;19.47;;;11.33;;
13741;SDS011;8461;52.356;10.704;2022-12-07T05:32:58;18.77;;;10.63;;
13741;SDS011;8461;52.356;10.704;2022-12-07T05:35:24;17.80;;;10.97;;
13741;SDS011;8461;52.356;10.704;2022-12-07T05:37:49;20.20;;;11.47;;
13741;SDS011;8461;52.356;10.704;2022-12-07T05:40:15;15.67;;;10.23;;
13741;SDS011;8461;52.356;10.704;2022-12-07T05:42:41;21.33;;;10.70;;
13741;SDS011;8461;52.356;10.704;2022-12-07T05:45:07;16.73;;;9.87;;
13741;SDS011;8461;52.356;10.704;2022-12-07T05:47:33;16.30;;;9.93;;
13741;SDS011;8461;52.356;10.704;2022-12-07T05:49:59;17.77;;;9.77;;
13741;SDS011;8461;52.356;10.704;2022-12-07T05:52:24;17.73;;;9.90;;
13741;SDS011;8461;52.356;10.704;2022-12-07T05:54:51;19.50;;;9.53;;
13741;SDS011;8461;52.356;10.704;2022-12-07T05:57:17;21.83;;;10.67;;
13741;SDS011;8461;52.356;10.704;2022-12-07T05:59:42;20.93;;;11.07;;
13741;SDS011;8461;52.356;10.704;2022-12-07T06:02:09;18.63;;;9.47;;
13741;SDS011;8461;52.356;10.704;2022-12-07T06:04:37;17.20;;;9.97;;
13741;SDS011;8461;52.356;10.704;2022-12-07T06:07:04;17.57;;;8.93;;
13741;SDS011;8461;52.356;10.704;2022-12-07T06:09:31;20.10;;;9.93;;
13741;SDS011;8461;52.356;10.704;2022-12-07T06:11:57;18.63;;;10.07;;
13741;SDS011;8461;52.356;10.704;2022-12-07T06:14:41;20.13;;;10.70;;
13741;SDS011;8461;52.356;10.704;2022-12-07T06:17:07;18.47;;;10.43;;
13741;SDS011;8461;52.356;10.704;2022-12-07T06:19:33;16.60;;;9.83;;
13741;SDS011;8461;52.356;10.704;2022-12-07T06:22:00;16.80;;;9.50;;
13741;SDS011;8461;52.356;10.704;2022-12-07T06:24:27;17.07;;;9.20;;
13741;SDS011;8461;52.356;10.704;2022-12-07T06:26:53;16.70;;;9.67;;
13741;SDS011;8461;52.356;10.704;2022-12-07T06:29:18;18.63;;;9.40;;
13741;SDS011;8461;52.356;10.704;2022-12-07T06:31:44;21.07;;;9.90;;
13741;SDS011;8461;52.356;10.704;2022-12-07T06:34:11;21.37;;;9.93;;
13741;SDS011;8461;52.356;10.704;2022-12-07T06:36:38;17.23;;;9.70;;
13741;SDS011;8461;52.356;10.704;2022-12-07T06:39:05;17.07;;;9.50;;
13741;SDS011;8461;52.356;10.704;2022-12-07T06:41:31;17.43;;;9.77;;
13741;SDS011;8461;52.356;10.704;2022-12-07T06:43:57;19.83;;;9.80;;
13741;SDS011;8461;52.356;10.704;2022-12-07T06:46:22;18.00;;;9.07;;
13741;SDS011;8461;52.356;10.704;2022-12-07T06:48:48;16.47;;;9.37;;
13741;SDS011;8461;52.356;10.704;2022-12-07T06:51:14;16.27;;;9.23;;
13741;SDS011;8461;52.356;10.704;2022-12-07T06:53:40;14.63;;;8.37;;
13741;SDS011;8461;52.356;10.704;2022-12-07T06:56:05;13.80;;;8.20;;
13741;SDS011;8461;52.356;10.704;2022-12-07T06:58:31;16.80;;;9.50;;
13741;SDS011;8461;52.356;10.704;2022-12-07T07:00:57;17.20;;;8.67;;
13741;SDS011;8461;52.356;10.704;2022-12-07T07:03:22;14.73;;;7.87;;
13741;SDS011;8461;52.356;10.704;2022-12-07T07:05:49;11.33;;;6.90;;
13741;SDS011;8461;52.356;10.704;2022-12-07T07:08:14;11.70;;;6.17;;
13741;SDS011;8461;52.356;10.704;2022-12-07T07:10:40;12.93;;;6.30;;
13741;SDS011;8461;52.356;10.704;2022-12-07T07:13:06;10.97;;;5.27;;
13741;SDS011;8461;52.356;10.704;2022-12-07T07:15:33;7.27;;;5.23;;
13741;SDS011;8461;52.356;10.704;2022-12-07T07:17:59;11.23;;;5.30;;
13741;SDS011;8461;52.356;10.704;2022-12-07T07:20:25;10.83;;;5.30;;
13741;SDS011;8461;52.356;10.704;2022-12-07T07:22:53;10.53;;;6.37;;
13741;SDS011;8461;52.356;10.704;2022-12-07T07:25:20;8.77;;;6.47;;
13741;SDS011;8461;52.356;10.704;2022-12-07T07:27:45;12.70;;;6.33;;
13741;SDS011;8461;52.356;10.704;2022-12-07T07:30:11;14.27;;;7.47;;
13741;SDS011;8461;52.356;10.704;2022-12-07T07:32:37;12.40;;;7.63;;
13741;SDS011;8461;52.356;10.704;2022-12-07T07:35:02;13.03;;;7.67;;
13741;SDS011;8461;52.356;10.704;2022-12-07T07:37:28;12.47;;;7.80;;
13741;SDS011;8461;52.356;10.704;2022-12-07T07:39:54;11.70;;;7.40;;
13741;SDS011;8461;52.356;10.704;2022-12-07T07:42:19;13.20;;;8.37;;
13741;SDS011;8461;52.356;10.704;2022-12-07T07:44:45;13.50;;;8.07;;
13741;SDS011;8461;52.356;10.704;2022-12-07T07:47:10;12.30;;;7.47;;
13741;SDS011;8461;52.356;10.704;2022-12-07T07:49:36;10.70;;;6.43;;
13741;SDS011;8461;52.356;10.704;2022-12-07T07:52:02;8.50;;;5.97;;
13741;SDS011;8461;52.356;10.704;2022-12-07T07:54:27;10.83;;;6.57;;
13741;SDS011;8461;52.356;10.704;2022-12-07T07:56:53;10.23;;;6.27;;
13741;SDS011;8461;52.356;10.704;2022-12-07T07:59:19;13.33;;;7.47;;
13741;SDS011;8461;52.356;10.704;2022-12-07T08:01:44;11.97;;;7.10;;
13741;SDS011;8461;52.356;10.704;2022-12-07T08:04:10;9.47;;;6.27;;
13741;SDS011;8461;52.356;10.704;2022-12-07T08:06:35;14.80;;;8.40;;
13741;SDS011;8461;52.356;10.704;2022-12-07T08:09:02;13.07;;;7.90;;
13741;SDS011;8461;52.356;10.704;2022-12-07T08:11:28;11.83;;;7.17;;
13741;SDS011;8461;52.356;10.704;2022-12-07T08:13:54;12.47;;;7.97;;
13741;SDS011;8461;52.356;10.704;2022-12-07T08:16:19;10.93;;;8.10;;
13741;SDS011;8461;52.356;10.704;2022-12-07T08:18:45;13.53;;;8.27;;
13741;SDS011;8461;52.356;10.704;2022-12-07T08:21:11;14.77;;;8.63;;
13741;SDS011;8461;52.356;10.704;2022-12-07T08:23:38;11.87;;;7.53;;
13741;SDS011;8461;52.356;10.704;2022-12-07T08:26:05;15.97;;;7.50;;
13741;SDS011;8461;52.356;10.704;2022-12-07T08:28:33;12.60;;;7.13;;
13741;SDS011;8461;52.356;10.704;2022-12-07T08:31:03;16.80;;;7.63;;
13741;SDS011;8461;52.356;10.704;2022-12-07T08:33:30;15.40;;;7.40;;
13741;SDS011;8461;52.356;10.704;2022-12-07T08:36:03;13.27;;;7.13;;
13741;SDS011;8461;52.356;10.704;2022-12-07T08:38:30;10.30;;;6.83;;
13741;SDS011;8461;52.356;10.704;2022-12-07T08:40:55;11.80;;;6.37;;
13741;SDS011;8461;52.356;10.704;2022-12-07T08:43:22;12.00;;;6.67;;
13741;SDS011;8461;52.356;10.704;2022-12-07T08:45:49;9.93;;;6.33;;
13741;SDS011;8461;52.356;10.704;2022-12-07T08:48:22;7.90;;;5.97;;
13741;SDS011;8461;52.356;10.704;2022-12-07T08:50:49;10.43;;;6.77;;
13741;SDS011;8461;52.356;10.704;2022-12-07T08:53:16;11.83;;;5.73;;
13741;SDS011;8461;52.356;10.704;2022-12-07T08:55:42;11.57;;;7.03;;
13741;SDS011;8461;52.356;10.704;2022-12-07T08:58:09;12.90;;;6.20;;
13741;SDS011;8461;52.356;10.704;2022-12-07T09:00:35;11.10;;;6.70;;
13741;SDS011;8461;52.356;10.704;2022-12-07T09:03:01;8.30;;;6.23;;
13741;SDS011;8461;52.356;10.704;2022-12-07T09:05:26;11.73;;;6.67;;
13741;SDS011;8461;52.356;10.704;2022-12-07T09:07:54;11.63;;;6.67;;
13741;SDS011;8461;52.356;10.704;2022-12-07T09:10:22;11.57;;;7.10;;
13741;SDS011;8461;52.356;10.704;2022-12-07T09:12:48;11.53;;;6.90;;
13741;SDS011;8461;52.356;10.704;2022-12-07T09:15:14;10.60;;;6.00;;
13741;SDS011;8461;52.356;10.704;2022-12-07T09:17:39;8.57;;;5.20;;
13741;SDS011;8461;52.356;10.704;2022-12-07T09:20:05;9.10;;;5.80;;
13741;SDS011;8461;52.356;10.704;2022-12-07T09:22:31;11.53;;;6.43;;
13741;SDS011;8461;52.356;10.704;2022-12-07T09:24:58;8.47;;;4.90;;
13741;SDS011;8461;52.356;10.704;2022-12-07T09:27:24;9.07;;;5.80;;
13741;SDS011;8461;52.356;10.704;2022-12-07T09:29:51;10.03;;;5.60;;
13741;SDS011;8461;52.356;10.704;2022-12-07T09:32:16;8.13;;;5.60;;
13741;SDS011;8461;52.356;10.704;2022-12-07T09:34:42;9.83;;;5.50;;
13741;SDS011;8461;52.356;10.704;2022-12-07T09:37:08;12.00;;;4.77;;
13741;SDS011;8461;52.356;10.704;2022-12-07T09:39:34;9.37;;;4.70;;
13741;SDS011;8461;52.356;10.704;2022-12-07T09:42:03;8.87;;;4.70;;
13741;SDS011;8461;52.356;10.704;2022-12-07T09:44:30;7.97;;;4.37;;
13741;SDS011;8461;52.356;10.704;2022-12-07T09:46:57;9.10;;;3.97;;
13741;SDS011;8461;52.356;10.704;2022-12-07T09:49:25;8.00;;;4.90;;
13741;SDS011;8461;52.356;10.704;2022-12-07T09:52:03;6.63;;;3.57;;
13741;SDS011;8461;52.356;10.704;2022-12-07T09:54:42;8.93;;;4.20;;
13741;SDS011;8461;52.356;10.704;2022-12-07T09:57:10;8.93;;;4.23;;
13741;SDS011;8461;52.356;10.704;2022-12-07T09:59:37;6.70;;;3.90;;
13741;SDS011;8461;52.356;10.704;2022-12-07T10:02:23;5.77;;;4.27;;
13741;SDS011;8461;52.356;10.704;2022-12-07T10:04:58;8.20;;;4.53;;
13741;SDS011;8461;52.356;10.704;2022-12-07T10:07:24;8.33;;;4.00;;
13741;SDS011;8461;52.356;10.704;2022-12-07T10:09:49;7.60;;;4.10;;
13741;SDS011;8461;52.356;10.704;2022-12-07T10:12:15;7.10;;;4.23;;
13741;SDS011;8461;52.356;10.704;2022-12-07T10:14:53;9.10;;;4.03;;
13741;SDS011;8461;52.356;10.704;2022-12-07T10:17:26;7.13;;;3.53;;
13741;SDS011;8461;52.356;10.704;2022-12-07T10:20:42;6.67;;;3.20;;
13741;SDS011;8461;52.356;10.704;2022-12-07T10:25:25;6.13;;;3.10;;
13741;SDS011;8461;52.356;10.704;2022-12-07T10:28:02;7.47;;;2.93;;
13741;SDS011;8461;52.356;10.704;2022-12-07T10:30:59;7.20;;;3.30;;
13741;SDS011;8461;52.356;10.704;2022-12-07T10:33:33;5.00;;;3.10;;
13741;SDS011;8461;52.356;10.704;2022-12-07T10:36:01;7.60;;;3.83;;
13741;SDS011;8461;52.356;10.704;2022-12-07T10:38:53;5.27;;;2.80;;
13741;SDS011;8461;52.356;10.704;2022-12-07T10:41:24;6.63;;;3.87;;
13741;SDS011;8461;52.356;10.704;2022-12-07T10:43:54;5.53;;;3.03;;
13741;SDS011;8461;52.356;10.704;2022-12-07T10:57:22;3.50;;;2.37;;
13741;SDS011;8461;52.356;10.704;2022-12-07T10:59:52;3.63;;;1.93;;
13741;SDS011;8461;52.356;10.704;2022-12-07T11:02:24;2.73;;;2.00;;
13741;SDS011;8461;52.356;10.704;2022-12-07T11:04:57;4.77;;;2.10;;
13741;SDS011;8461;52.356;10.704;2022-12-07T11:07:44;4.77;;;1.53;;
13741;SDS011;8461;52.356;10.704;2022-12-07T11:10:45;6.23;;;1.50;;
13741;SDS011;8461;52.356;10.704;2022-12-07T11:13:45;4.20;;;1.47;;
13741;SDS011;8461;52.356;10.704;2022-12-07T11:22:23;4.07;;;1.37;;
13741;SDS011;8461;52.356;10.704;2022-12-07T11:30:48;2.67;;;1.40;;
13741;SDS011;8461;52.356;10.704;2022-12-07T11:36:04;4.23;;;1.40;;
13741;SDS011;8461;52.356;10.704;2022-12-07T11:38:50;2.60;;;1.13;;
13741;SDS011;8461;52.356;10.704;2022-12-07T11:41:22;5.37;;;1.30;;
13741;SDS011;8461;52.356;10.704;2022-12-07T11:43:54;3.20;;;1.53;;
13741;SDS011;8461;52.356;10.704;2022-12-07T11:46:27;3.13;;;1.10;;
13741;SDS011;8461;52.356;10.704;2022-12-07T11:49:25;3.73;;;1.40;;
13741;SDS011;8461;52.356;10.704;2022-12-07T11:52:25;3.53;;;1.40;;
13741;SDS011;8461;52.356;10.704;2022-12-07T11:54:57;3.60;;;1.50;;
13741;SDS011;8461;52.356;10.704;2022-12-07T11:57:27;3.80;;;1.97;;
13741;SDS011;8461;52.356;10.704;2022-12-07T12:00:04;4.90;;;2.33;;
13741;SDS011;8461;52.356;10.704;2022-12-07T12:02:39;4.50;;;2.07;;
13741;SDS011;8461;52.356;10.704;2022-12-07T12:05:13;3.27;;;1.40;;
13741;SDS011;8461;52.356;10.704;2022-12-07T12:07:43;4.63;;;1.43;;
13741;SDS011;8461;52.356;10.704;2022-12-07T12:10:16;5.77;;;1.57;;
13741;SDS011;8461;52.356;10.704;2022-12-07T12:12:56;3.00;;;1.30;;
13741;SDS011;8461;52.356;10.704;2022-12-07T12:16:28;5.33;;;2.07;;
13741;SDS011;8461;52.356;10.704;2022-12-07T12:21:37;2.27;;;0.70;;
13741;SDS011;8461;52.356;10.704;2022-12-07T12:24:14;2.93;;;1.30;;
13741;SDS011;8461;52.356;10.704;2022-12-07T12:26:50;5.63;;;1.30;;
13741;SDS011;8461;52.356;10.704;2022-12-07T12:29:24;1.37;;;0.90;;
13741;SDS011;8461;52.356;10.704;2022-12-07T12:32:15;2.03;;;1.00;;
13741;SDS011;8461;52.356;10.704;2022-12-07T12:40:52;4.73;;;1.23;;
13741;SDS011;8461;52.356;10.704;2022-12-07T12:48:54;8.37;;;1.60;;
13741;SDS011;8461;52.356;10.704;2022-12-07T12:51:37;4.37;;;1.43;;
13741;SDS011;8461;52.356;10.704;2022-12-07T12:54:08;4.33;;;1.33;;
13741;SDS011;8461;52.356;10.704;2022-12-07T13:01:55;8.67;;;1.77;;
13741;SDS011;8461;52.356;10.704;2022-12-07T13:04:50;5.73;;;1.10;;
13741;SDS011;8461;52.356;10.704;2022-12-07T13:15:53;6.63;;;1.40;;
13741;SDS011;8461;52.356;10.704;2022-12-07T13:26:36;2.13;;;0.90;;
13741;SDS011;8461;52.356;10.704;2022-12-07T13:31:39;5.67;;;1.30;;
13741;SDS011;8461;52.356;10.704;2022-12-07T13:37:02;2.03;;;1.07;;
13741;SDS011;8461;52.356;10.704;2022-12-07T13:39:49;2.47;;;0.97;;
13741;SDS011;8461;52.356;10.704;2022-12-07T13:42:24;2.73;;;1.00;;
13741;SDS011;8461;52.356;10.704;2022-12-07T13:44:55;2.73;;;1.07;;
13741;SDS011;8461;52.356;10.704;2022-12-07T13:50:24;1.73;;;1.10;;
13741;SDS011;8461;52.356;10.704;2022-12-07T13:52:55;1.83;;;0.83;;
13741;SDS011;8461;52.356;10.704;2022-12-07T13:55:22;1.47;;;1.17;;
13741;SDS011;8461;52.356;10.704;2022-12-07T13:57:48;3.67;;;0.90;;
13741;SDS011;8461;52.356;10.704;2022-12-07T14:00:17;4.63;;;1.53;;
13741;SDS011;8461;52.356;10.704;2022-12-07T14:02:58;2.67;;;1.20;;
13741;SDS011;8461;52.356;10.704;2022-12-07T14:08:06;2.53;;;1.40;;
13741;SDS011;8461;52.356;10.704;2022-12-07T14:16:01;4.50;;;1.20;;
13741;SDS011;8461;52.356;10.704;2022-12-07T14:21:04;5.03;;;1.50;;
13741;SDS011;8461;52.356;10.704;2022-12-07T14:23:40;10.43;;;2.00;;
13741;SDS011;8461;52.356;10.704;2022-12-07T14:26:13;4.03;;;1.27;;
13741;SDS011;8461;52.356;10.704;2022-12-07T14:28:40;5.70;;;1.40;;
13741;SDS011;8461;52.356;10.704;2022-12-07T14:33:37;3.50;;;1.50;;
13741;SDS011;8461;52.356;10.704;2022-12-07T14:36:04;3.40;;;1.40;;
13741;SDS011;8461;52.356;10.704;2022-12-07T14:38:29;5.03;;;2.10;;
13741;SDS011;8461;52.356;10.704;2022-12-07T14:40:55;5.00;;;2.13;;
13741;SDS011;8461;52.356;10.704;2022-12-07T14:43:44;7.83;;;2.73;;
13741;SDS011;8461;52.356;10.704;2022-12-07T14:46:10;7.13;;;3.33;;
13741;SDS011;8461;52.356;10.704;2022-12-07T14:48:36;7.67;;;3.83;;
13741;SDS011;8461;52.356;10.704;2022-12-07T14:51:01;7.30;;;4.13;;
13741;SDS011;8461;52.356;10.704;2022-12-07T14:53:29;6.33;;;3.80;;
13741;SDS011;8461;52.356;10.704;2022-12-07T14:55:59;6.43;;;1.83;;
13741;SDS011;8461;52.356;10.704;2022-12-07T14:58:25;1.57;;;0.80;;
13741;SDS011;8461;52.356;10.704;2022-12-07T15:00:51;1.53;;;0.87;;
13741;SDS011;8461;52.356;10.704;2022-12-07T15:03:16;6.00;;;0.90;;
13741;SDS011;8461;52.356;10.704;2022-12-07T15:05:42;3.77;;;0.70;;
13741;SDS011;8461;52.356;10.704;2022-12-07T15:08:08;5.17;;;1.07;;
13741;SDS011;8461;52.356;10.704;2022-12-07T15:10:36;2.87;;;0.93;;
13741;SDS011;8461;52.356;10.704;2022-12-07T15:13:03;3.77;;;1.60;;
13741;SDS011;8461;52.356;10.704;2022-12-07T15:15:48;3.17;;;1.00;;
13741;SDS011;8461;52.356;10.704;2022-12-07T15:18:16;5.73;;;1.63;;
13741;SDS011;8461;52.356;10.704;2022-12-07T15:20:42;4.67;;;1.00;;
13741;SDS011;8461;52.356;10.704;2022-12-07T15:23:08;2.17;;;1.30;;
13741;SDS011;8461;52.356;10.704;2022-12-07T15:25:35;2.97;;;1.43;;
13741;SDS011;8461;52.356;10.704;2022-12-07T15:28:00;4.57;;;1.23;;
13741;SDS011;8461;52.356;10.704;2022-12-07T15:30:26;1.73;;;1.03;;
13741;SDS011;8461;52.356;10.704;2022-12-07T15:32:52;3.17;;;1.60;;
13741;SDS011;8461;52.356;10.704;2022-12-07T15:35:18;2.37;;;0.90;;
13741;SDS011;8461;52.356;10.704;2022-12-07T15:37:44;1.80;;;1.17;;
13741;SDS011;8461;52.356;10.704;2022-12-07T15:40:10;4.00;;;2.60;;
13741;SDS011;8461;52.356;10.704;2022-12-07T15:42:36;3.80;;;2.07;;
13741;SDS011;8461;52.356;10.704;2022-12-07T15:45:03;9.77;;;5.80;;
13741;SDS011;8461;52.356;10.704;2022-12-07T15:47:33;10.77;;;6.07;;
13741;SDS011;8461;52.356;10.704;2022-12-07T15:50:01;6.17;;;2.27;;
13741;SDS011;8461;52.356;10.704;2022-12-07T15:52:30;3.10;;;1.00;;
13741;SDS011;8461;52.356;10.704;2022-12-07T15:54:56;4.60;;;1.10;;
13741;SDS011;8461;52.356;10.704;2022-12-07T15:57:21;5.03;;;1.27;;
13741;SDS011;8461;52.356;10.704;2022-12-07T15:59:47;7.23;;;2.63;;
13741;SDS011;8461;52.356;10.704;2022-12-07T16:02:13;11.00;;;5.47;;
13741;SDS011;8461;52.356;10.704;2022-12-07T16:04:38;11.70;;;5.27;;
13741;SDS011;8461;52.356;10.704;2022-12-07T16:07:04;16.17;;;7.17;;
13741;SDS011;8461;52.356;10.704;2022-12-07T16:09:30;7.00;;;3.50;;
13741;SDS011;8461;52.356;10.704;2022-12-07T16:11:56;5.07;;;2.60;;
13741;SDS011;8461;52.356;10.704;2022-12-07T16:14:21;4.10;;;2.93;;
13741;SDS011;8461;52.356;10.704;2022-12-07T16:16:47;2.73;;;1.50;;
13741;SDS011;8461;52.356;10.704;2022-12-07T16:19:13;7.17;;;1.83;;
13741;SDS011;8461;52.356;10.704;2022-12-07T16:21:39;7.97;;;3.43;;
13741;SDS011;8461;52.356;10.704;2022-12-07T16:24:05;3.73;;;2.10;;